• Join FlightAware (Why Join?)
  • Login
  • US Flag 
07:04PM EDT


 

Airport Tracker/Info


-or-


 

Live Flight TrackerFlight Track Log ✈ WBR2634 ✈ 26-Apr-2013 ✈ KBRL - KORD

Flight Track Log - Related Links

Times and Time Zones

All times are in EDT time to prevent confusion due to time zone crossing. See the WBR2634 flight status page for this flight to view local times or setup timezone preferences in your user account.

Time Position Orientation Groundspeed Altitude Reporting Facility
EDT Latitude Longitude Course Direction KTS MPH feet Rate Location/Type
05:44PM 40.7839 -91.0564 70° East 90 104 2,900  Level Chicago Center
05:45PM 40.7958 -91.0139 70° East 122 140 4,000 1,020 Climbing Chicago Center
05:46PM 40.8039 -90.9628 78° East 120 138 5,100 840 Climbing Chicago Center
05:47PM 40.8169 -90.9169 69° East 126 145 5,800 720 Climbing Chicago Center
05:48PM 40.8292 -90.8694 71° East 134 154 6,700 720 Climbing Chicago Center
05:49PM 40.8408 -90.8225 72° East 134 154 7,400 600 Climbing Chicago Center
05:50PM 40.8519 -90.7731 73° East 137 158 8,000 540 Climbing Chicago Center
05:51PM 40.8675 -90.7203 69° East 149 171 8,600 480 Climbing Chicago Center
05:52PM 40.8828 -90.6583 72° East 148 170 9,100 240 Climbing Chicago Center
05:53PM 40.8983 -90.6044 69° East 156 180 9,100  Level Chicago Center
05:54PM 40.9125 -90.5497 71° East 157 181 9,100  Level Chicago Center
05:56PM 40.9278 -90.4958 69° East 156 180 9,200  Climbing Chicago Center
05:57PM 40.9447 -90.4394 68° East 162 186 9,100 -60 Descending Chicago Center
05:58PM 40.9603 -90.3833 70° East 161 185 9,100  Level Chicago Center
05:59PM 40.9731 -90.3267 73° East 161 185 9,100  Level Chicago Center
06:00PM 40.9889 -90.2600 73° East 160 184 9,100  Level Chicago Center
06:01PM 41.0039 -90.2039 70° East 160 184 9,100 -60 Level Chicago Center
06:02PM 41.0181 -90.1475 72° East 161 185 9,000 -60 Descending Chicago Center
06:03PM 41.0322 -90.0917 71° East 160 184 9,000  Level Chicago Center
06:04PM 41.0492 -90.0358 68° East 162 186 9,000  Level Chicago Center
06:05PM 41.0683 -89.9811 65° Northeast 163 188 9,000  Level Chicago Center
06:06PM 41.0822 -89.9225 73° East 165 190 9,000  Level Chicago Center
06:07PM 41.0983 -89.8531 73° East 164 189 9,100  Climbing Chicago Center
06:08PM 41.1133 -89.7950 71° East 165 190 9,000  Descending Chicago Center
06:09PM 41.1267 -89.7347 74° East 168 193 9,100  Climbing Chicago Center
06:10PM 41.1414 -89.6781 71° East 165 190 9,000 -60 Descending Chicago Center
06:11PM 41.1567 -89.6206 71° East 164 189 9,000  Level Chicago Center
06:12PM 41.1756 -89.5644 66° East 165 190 9,000  Level Chicago Center
06:13PM 41.2072 -89.5050 55° Northeast 165 190 9,100  Climbing Chicago Center
06:14PM 41.2306 -89.4514 60° Northeast 166 191 9,000 -60 Descending Chicago Center
06:15PM 41.2531 -89.3975 61° Northeast 166 191 9,000  Level Chicago Center
06:16PM 41.2756 -89.3408 62° Northeast 170 196 9,000  Level Chicago Center
06:17PM 41.2981 -89.2853 62° Northeast 171 197 9,100  Climbing Chicago Center
06:18PM 41.3231 -89.2314 58° Northeast 171 197 9,000 -60 Descending Chicago Center
06:19PM 41.3503 -89.1739 58° Northeast 174 200 9,000  Level Chicago Center
06:20PM 41.3817 -89.1108 56° Northeast 172 198 9,100  Climbing Chicago Center
06:21PM 41.4058 -89.0539 60° Northeast 176 203 9,100  Level Chicago Center
06:22PM 41.4350 -88.9992 55° Northeast 182 209 9,100 -60 Level Chicago Center
06:23PM 41.4631 -88.9450 55° Northeast 181 208 9,000 -60 Descending Chicago Center
06:24PM 41.4878 -88.8867 60° Northeast 183 211 9,000 -180 Level Chicago Center
06:26PM 41.5144 -88.8300 58° Northeast 183 211 8,700 -480 Descending Chicago Center
06:27PM 41.5475 -88.7600 58° Northeast 185 213 8,100 -360 Descending Chicago Center
06:28PM 41.5758 -88.7022 57° Northeast 187 215 8,000 -60 Descending Chicago Center
06:29PM 41.6003 -88.6453 60° Northeast 182 209 8,000  Level Chicago Center
06:30PM 41.6281 -88.5906 56° Northeast 178 205 8,100  Climbing Chicago Center
06:31PM 41.6569 -88.5369 54° Northeast 178 205 8,100 -240 Level Chicago Center
06:32PM 41.6939 -88.4714 53° Northeast 183 211 7,700 -480 Descending Chicago Center
06:33PM 41.7203 -88.4142 58° Northeast 181 208 7,200 -360 Descending Chicago Center
06:34PM 41.7461 -88.3556 59° Northeast 183 211 7,000 -60 Descending Chicago Center
06:35PM 41.7747 -88.3000 55° Northeast 181 208 7,100  Climbing Chicago Center
06:36PM 41.8028 -88.2458 55° Northeast 180 207 7,100 -60 Level Chicago Center
06:37PM 41.8331 -88.1919 53° Northeast 180 207 7,000  Descending Chicago Center
06:38PM 41.8669 -88.1264 55° Northeast 180 207 7,100 60 Climbing Chicago Center
06:38PM 41.8833 -88.1167 24° Northeast 182 209 7,100 -120 Level Chicago TRACON
06:39PM 41.9333 -88.1333 346° North 180 207 7,000  Descending Chicago TRACON
06:40PM 41.9644 -88.1303 North 179 206 7,100 -240 Climbing Chicago Center
06:41PM 42.0131 -88.1308 360° North 175 201 6,600 -660 Descending Chicago Center
06:42PM 42.0606 -88.1328 358° North 173 199 5,800 -1,080 Descending Chicago Center
06:43PM 42.1131 -88.1147 14° North 170 196 4,400 -1,260 Descending Chicago Center
06:44PM 42.1047 -88.0631 102° East 160 184 3,300 -780 Descending Chicago Center
06:45PM 42.0728 -88.0269 140° Southeast 154 177 2,900 -720 Descending Chicago Center
06:46PM 42.0375 -87.9897 142° Southeast 156 180 1,900 -660 Descending Chicago Center
06:47PM 42.0058 -87.9536 140° Southeast 158 182 1,600 -300 Descending Chicago Center
06:49PM 41.9817 -87.9067 140° Southeast  Level Estimated